Clifton Forge, Virginia
Current Conditions -  °F | °C
As of 8:15 PM on Tuesday 21 Oct 2014 (Local Time) from KHSP Reporting Station
Overcast Overcast  
Wind Chill: 34°   Ceiling: 600
Heat Index: 41°   Visibility: 10mi
Dew Point: 40°   Wind: 13mph
Humidity: 95%   Direction: 300°WNW
Pressure: 29.91"   Gusts: 20mph
Location:  37.82°N, 79.83°W
Report Text: KHSP 220015Z AUTO 30011G17KT 10SM OVC006 05/04 A2991 RMK AO2 T00500043
Loading
Personal Weather Stations






























Interactive Weather Map
Tropical Storm Tracking
New forecast layout! Learn more

10-Day Weather Forecast

Advertisements
Track Severe Weather on mobile